Time;durP1;ratioP1;P1;durP2;ratioP2;P2;SDS_P1;SDS_P2;PMS_P1;PMS_P2;Temp;Humidity;BMP_temperature;BMP_pressure;BME280_temperature;BME280_humidity;BME280_pressure;Samples;Min_cycle;Max_cycle;Signal;HPM_P1;HPM_P2
2023/02/26 00:01:21;;;;;;;5.93;1.85;;;0.80;99.90;;;;;;7380521;19;20015;-66
2023/02/26 00:03:52;;;;;;;6.78;1.65;;;0.80;99.90;;;;;;7375597;19;20015;-66
2023/02/26 00:06:19;;;;;;;7.65;1.80;;;0.80;99.90;;;;;;7375392;19;21061;-66
2023/02/26 00:08:46;;;;;;;4.80;1.38;;;0.70;99.90;;;;;;7378447;19;20622;-66
2023/02/26 00:11:12;;;;;;;7.75;2.05;;;0.70;99.90;;;;;;7378835;19;20081;-60
2023/02/26 00:13:41;;;;;;;7.32;1.50;;;0.70;99.90;;;;;;7377727;19;20838;-60
2023/02/26 00:16:26;;;;;;;5.43;1.45;;;0.70;99.90;;;;;;7376204;19;20033;-60
2023/02/26 00:18:53;;;;;;;7.93;1.65;;;0.70;99.90;;;;;;7381572;19;20477;-60
2023/02/26 00:21:25;;;;;;;6.95;2.00;;;0.70;99.90;;;;;;7380180;19;20018;-61
2023/02/26 00:23:53;;;;;;;3.95;1.40;;;0.70;99.90;;;;;;7379937;19;20074;-66
2023/02/26 00:26:20;;;;;;;6.20;1.48;;;0.60;99.90;;;;;;7376657;19;20042;-60
2023/02/26 00:28:47;;;;;;;6.32;1.50;;;0.70;99.90;;;;;;7379703;19;20211;-66
2023/02/26 00:31:23;;;;;;;5.07;1.67;;;0.60;99.90;;;;;;7379132;19;20111;-66
2023/02/26 00:33:54;;;;;;;5.53;1.45;;;0.60;99.90;;;;;;7375089;19;20014;-65
2023/02/26 00:36:24;;;;;;;9.05;1.63;;;0.60;99.90;;;;;;7377776;19;20636;-66
2023/02/26 00:39:14;;;;;;;4.78;1.58;;;0.60;99.90;;;;;;7379306;19;20022;-60
2023/02/26 00:41:41;;;;;;;7.20;1.42;;;0.50;99.90;;;;;;7382440;19;20014;-60
2023/02/26 00:44:09;;;;;;;7.72;1.70;;;0.50;99.90;;;;;;7380886;19;20049;-66
2023/02/26 00:46:57;;;;;;;5.57;1.50;;;0.60;99.90;;;;;;7376558;19;20043;-66
2023/02/26 00:49:56;;;;;;;8.60;1.58;;;0.50;99.90;;;;;;7378361;19;20022;-60
2023/02/26 00:52:42;;;;;;;4.90;1.33;;;0.50;99.90;;;;;;7377099;19;20374;-60
2023/02/26 00:55:11;;;;;;;5.38;1.40;;;0.60;99.90;;;;;;7375560;19;20443;-60
2023/02/26 00:57:38;;;;;;;7.65;1.63;;;0.50;99.90;;;;;;7378045;19;20018;-66
2023/02/26 01:00:06;;;;;;;3.45;1.23;;;0.50;99.90;;;;;;7379701;19;20059;-59
2023/02/26 01:02:36;;;;;;;3.42;1.23;;;0.50;99.90;;;;;;7372172;19;20025;-61
2023/02/26 01:05:03;;;;;;;4.95;1.20;;;0.40;99.90;;;;;;7380742;19;20516;-59
2023/02/26 01:07:36;;;;;;;4.32;1.40;;;0.40;99.90;;;;;;7377635;19;20485;-59
2023/02/26 01:10:16;;;;;;;5.65;1.20;;;0.40;99.90;;;;;;7381934;19;20010;-59
2023/02/26 01:12:42;;;;;;;4.15;1.13;;;0.40;99.90;;;;;;7384963;19;20046;-65
2023/02/26 01:15:10;;;;;;;10.45;1.67;;;0.30;99.90;;;;;;7381356;19;20022;-59
2023/02/26 01:18:07;;;;;;;4.00;1.30;;;0.30;99.90;;;;;;7383809;19;20501;-59
2023/02/26 01:20:46;;;;;;;6.68;1.63;;;0.20;99.90;;;;;;7382216;19;20013;-65
2023/02/26 01:23:17;;;;;;;7.25;1.30;;;0.20;99.90;;;;;;7379610;19;20045;-66
2023/02/26 01:25:53;;;;;;;8.57;2.13;;;0.20;99.90;;;;;;7381268;19;20394;-65
2023/02/26 01:28:20;;;;;;;6.10;1.38;;;0.20;99.90;;;;;;7376687;19;20038;-66
2023/02/26 01:30:47;;;;;;;3.65;1.30;;;0.10;99.90;;;;;;7381808;19;20010;-59
2023/02/26 01:33:28;;;;;;;8.27;1.52;;;0.20;99.90;;;;;;7377814;19;20059;-59
2023/02/26 01:36:07;;;;;;;5.57;1.35;;;0.10;99.90;;;;;;7376625;19;20018;-59
2023/02/26 01:38:46;;;;;;;6.22;1.70;;;0.00;99.90;;;;;;7378843;19;20038;-59
2023/02/26 01:41:37;;;;;;;3.00;1.33;;;0.00;99.90;;;;;;7377831;19;20027;-59
2023/02/26 01:44:32;;;;;;;7.47;1.60;;;0.00;99.90;;;;;;7377995;19;20025;-59
2023/02/26 01:47:11;;;;;;;4.97;1.45;;;-0.10;99.90;;;;;;7375832;19;20628;-60
2023/02/26 01:49:39;;;;;;;6.82;1.40;;;-0.10;99.90;;;;;;7378978;19;20106;-66
2023/02/26 01:52:26;;;;;;;7.93;1.65;;;-0.10;99.90;;;;;;7381397;19;20018;-60
2023/02/26 01:54:53;;;;;;;5.70;1.40;;;-0.10;99.90;;;;;;7377018;19;20046;-59
2023/02/26 01:57:21;;;;;;;5.68;1.63;;;-0.20;99.90;;;;;;7374372;19;20078;-59
2023/02/26 01:59:51;;;;;;;5.10;1.30;;;-0.30;99.90;;;;;;7379328;19;20014;-66
2023/02/26 02:02:21;;;;;;;3.47;1.23;;;-0.20;99.90;;;;;;7376087;19;20022;-66
2023/02/26 02:04:49;;;;;;;9.98;2.05;;;-0.30;99.90;;;;;;7376940;19;20052;-65
2023/02/26 02:07:17;;;;;;;2.63;1.15;;;-0.30;99.90;;;;;;7377058;19;20592;-66
2023/02/26 02:09:47;;;;;;;7.45;1.40;;;-0.30;99.90;;;;;;7378728;19;20140;-66
2023/02/26 02:12:32;;;;;;;5.18;1.52;;;-0.30;99.90;;;;;;7376305;19;20495;-66
2023/02/26 02:15:27;;;;;;;5.00;1.08;;;-0.30;99.90;;;;;;7375796;19;20078;-65
2023/02/26 02:18:18;;;;;;;6.50;1.38;;;-0.30;99.90;;;;;;7376934;19;20015;-65
2023/02/26 02:21:33;;;;;;;4.88;1.55;;;-0.30;99.90;;;;;;7377008;19;20022;-65
2023/02/26 02:24:25;;;;;;;7.57;1.27;;;-0.40;99.90;;;;;;7377259;19;20019;-65
2023/02/26 02:27:12;;;;;;;6.82;1.50;;;-0.40;99.90;;;;;;7378400;19;20022;-59
2023/02/26 02:30:09;;;;;;;9.13;1.55;;;-0.40;99.90;;;;;;7376421;19;20018;-60
2023/02/26 02:32:49;;;;;;;4.75;1.40;;;-0.40;99.90;;;;;;7378410;19;20025;-59
2023/02/26 02:35:28;;;;;;;4.30;1.30;;;-0.30;99.90;;;;;;7376751;19;20034;-59
2023/02/26 02:38:07;;;;;;;6.75;1.30;;;-0.30;99.90;;;;;;7377978;19;20018;-60
2023/02/26 02:40:38;;;;;;;9.35;1.67;;;-0.40;99.90;;;;;;7378823;19;20035;-66
2023/02/26 02:43:15;;;;;;;5.10;1.30;;;-0.30;99.90;;;;;;7376464;19;20824;-59
2023/02/26 02:45:53;;;;;;;5.70;1.02;;;-0.40;99.90;;;;;;7378720;19;20014;-66
2023/02/26 02:48:28;;;;;;;7.53;1.42;;;-0.30;99.90;;;;;;7378047;19;20018;-59
2023/02/26 02:51:00;;;;;;;4.82;1.30;;;-0.40;99.90;;;;;;7376131;19;20053;-59
2023/02/26 02:53:36;;;;;;;6.25;1.25;;;-0.40;99.90;;;;;;7375724;19;20127;-59
2023/02/26 02:56:17;;;;;;;2.38;0.95;;;-0.40;99.90;;;;;;7376208;19;20021;-59
2023/02/26 02:58:56;;;;;;;7.22;1.50;;;-0.50;99.90;;;;;;7375252;19;20028;-59
2023/02/26 03:01:26;;;;;;;9.88;1.83;;;-0.40;99.90;;;;;;7375569;19;20018;-59
2023/02/26 03:04:01;;;;;;;6.93;2.17;;;-0.50;99.90;;;;;;7376159;19;20090;-66
2023/02/26 03:06:30;;;;;;;4.97;1.25;;;-0.50;99.90;;;;;;7376239;19;20587;-66
2023/02/26 03:08:58;;;;;;;4.32;1.10;;;-0.50;99.90;;;;;;7377606;19;20709;-66
2023/02/26 03:11:26;;;;;;;5.68;1.27;;;-0.50;99.90;;;;;;7376025;19;20657;-60
2023/02/26 03:13:53;;;;;;;7.60;1.27;;;-0.60;99.90;;;;;;7374128;19;20017;-60
2023/02/26 03:16:51;;;;;;;5.93;1.10;;;-0.60;99.90;;;;;;7372993;19;21232;-59
2023/02/26 03:19:43;;;;;;;7.47;1.23;;;-0.60;99.90;;;;;;7375700;19;21047;-59
2023/02/26 03:22:09;;;;;;;6.20;1.13;;;-0.60;99.90;;;;;;7374004;19;20057;-59
2023/02/26 03:24:56;;;;;;;6.70;1.00;;;-0.60;99.90;;;;;;7375142;19;20464;-59
2023/02/26 03:27:43;;;;;;;4.95;1.20;;;-0.60;99.90;;;;;;7371677;19;20019;-59
2023/02/26 03:30:22;;;;;;;4.30;1.20;;;-0.70;99.90;;;;;;7376057;19;20022;-59
2023/02/26 03:33:07;;;;;;;6.97;1.40;;;-0.70;99.90;;;;;;7374363;19;20015;-59
2023/02/26 03:35:57;;;;;;;6.00;1.33;;;-0.70;99.90;;;;;;7370928;19;20493;-59
2023/02/26 03:38:32;;;;;;;5.28;1.05;;;-0.80;99.90;;;;;;7374121;19;20022;-59
2023/02/26 03:41:04;;;;;;;1.67;0.80;;;-0.70;99.90;;;;;;7374071;19;20850;-59
2023/02/26 03:43:43;;;;;;;4.03;1.00;;;-0.80;99.90;;;;;;7372794;19;20014;-59
2023/02/26 03:46:17;;;;;;;3.80;1.80;;;-0.70;99.90;;;;;;7368771;19;20043;-60
2023/02/26 03:48:47;;;;;;;3.53;1.13;;;-0.80;99.90;;;;;;7375449;19;20763;-60
2023/02/26 03:51:13;;;;;;;4.53;1.00;;;-0.70;99.90;;;;;;7372699;19;20026;-60
2023/02/26 03:54:17;;;;;;;8.32;1.88;;;-0.80;99.90;;;;;;7375777;19;20380;-60
2023/02/26 03:56:48;;;;;;;8.40;1.20;;;-0.80;99.90;;;;;;7373907;19;20022;-60
2023/02/26 03:59:43;;;;;;;4.03;0.90;;;-0.80;99.90;;;;;;7376661;19;20035;-60
2023/02/26 04:02:54;;;;;;;5.03;1.30;;;-0.80;99.90;;;;;;7373099;19;20052;-60
2023/02/26 04:05:26;;;;;;;4.72;1.52;;;-0.90;99.90;;;;;;7374314;19;20018;-60
2023/02/26 04:07:53;;;;;;;3.92;1.00;;;-0.90;99.90;;;;;;7372975;19;20046;-60
2023/02/26 04:10:28;;;;;;;8.65;1.40;;;-0.90;99.90;;;;;;7374092;19;20038;-66
2023/02/26 04:12:59;;;;;;;6.07;1.15;;;-0.90;99.90;;;;;;7376185;19;20026;-66
2023/02/26 04:15:25;;;;;;;3.28;1.23;;;-0.90;99.90;;;;;;7375136;19;20026;-66
2023/02/26 04:17:54;;;;;;;4.15;1.23;;;-1.00;99.90;;;;;;7371423;19;20041;-66
2023/02/26 04:20:21;;;;;;;3.75;1.35;;;-1.00;99.90;;;;;;7374017;19;20021;-60
2023/02/26 04:22:47;;;;;;;6.93;1.88;;;-1.00;99.90;;;;;;7374095;19;20059;-60
2023/02/26 04:25:13;;;;;;;4.40;1.33;;;-1.00;99.90;;;;;;7369802;19;20473;-60
2023/02/26 04:27:40;;;;;;;4.93;1.30;;;-1.10;99.90;;;;;;7371863;19;20022;-59
2023/02/26 04:30:07;;;;;;;3.45;1.15;;;-1.10;99.90;;;;;;7374944;19;20026;-60
2023/02/26 04:32:34;;;;;;;6.72;1.50;;;-1.10;99.90;;;;;;7373570;19;20027;-60
2023/02/26 04:35:00;;;;;;;7.63;1.60;;;-1.10;99.90;;;;;;7373657;19;20029;-66
2023/02/26 04:37:27;;;;;;;2.15;0.70;;;-1.10;99.90;;;;;;7369512;19;20032;-66
2023/02/26 04:39:54;;;;;;;7.32;1.33;;;-1.20;99.90;;;;;;7371521;19;20795;-60
2023/02/26 04:42:20;;;;;;;2.97;1.08;;;-1.10;99.90;;;;;;7375273;19;20019;-59
2023/02/26 04:44:47;;;;;;;7.07;1.35;;;-1.20;99.90;;;;;;7380578;19;20015;-59
2023/02/26 04:47:14;;;;;;;6.30;1.23;;;-1.10;99.90;;;;;;7374342;19;20018;-60
2023/02/26 04:49:41;;;;;;;8.00;1.73;;;-1.20;99.90;;;;;;7379283;19;20031;-60
2023/02/26 04:52:07;;;;;;;3.05;1.02;;;-1.20;99.90;;;;;;7379097;19;20026;-59
2023/02/26 04:54:34;;;;;;;5.03;1.35;;;-1.20;99.90;;;;;;7380068;19;20043;-59
2023/02/26 04:57:03;;;;;;;3.08;1.08;;;-1.20;99.90;;;;;;7378589;19;20020;-60
2023/02/26 04:59:30;;;;;;;4.47;1.00;;;-1.20;99.90;;;;;;7381811;19;21005;-59
2023/02/26 05:01:57;;;;;;;4.63;1.05;;;-1.20;99.90;;;;;;7378172;19;20101;-59
2023/02/26 05:04:27;;;;;;;3.90;1.40;;;-1.30;99.90;;;;;;7381337;19;20021;-59
2023/02/26 05:07:07;;;;;;;;;;;-1.30;99.90;;;;;;7379163;19;20022;-59
2023/02/26 05:09:33;;;;;;;3.15;1.10;;;-1.40;99.90;;;;;;7383181;19;19982;-60
2023/02/26 05:12:00;;;;;;;5.30;1.50;;;-1.40;99.90;;;;;;7375310;19;20115;-59
2023/02/26 05:14:26;;;;;;;4.65;1.30;;;-1.40;99.90;;;;;;7377438;19;20014;-60
2023/02/26 05:16:53;;;;;;;5.45;1.63;;;-1.40;99.90;;;;;;7379764;19;20015;-60
2023/02/26 05:19:23;;;;;;;3.58;0.95;;;-1.50;99.90;;;;;;7379813;19;20074;-66
2023/02/26 05:21:49;;;;;;;2.38;0.85;;;-1.50;99.90;;;;;;7379089;19;20018;-63
2023/02/26 05:24:16;;;;;;;3.80;1.08;;;-1.50;99.90;;;;;;7378344;19;20439;-60
2023/02/26 05:26:42;;;;;;;7.30;1.20;;;-1.60;99.90;;;;;;7378578;19;20772;-60
2023/02/26 05:29:09;;;;;;;5.10;0.88;;;-1.60;99.90;;;;;;7374705;19;20035;-59
2023/02/26 05:31:35;;;;;;;4.53;1.42;;;-1.70;99.90;;;;;;7377118;19;20028;-59
2023/02/26 05:34:01;;;;;;;2.45;1.67;;;-1.70;99.90;;;;;;7379172;19;20018;-65
2023/02/26 05:36:29;;;;;;;3.72;0.80;;;-1.70;99.90;;;;;;7382063;19;20018;-66
2023/02/26 05:38:55;;;;;;;9.02;1.55;;;-1.70;99.90;;;;;;7379305;19;20014;-66
2023/02/26 05:41:21;;;;;;;3.30;1.10;;;-1.80;99.90;;;;;;7378364;19;20036;-66
2023/02/26 05:43:47;;;;;;;3.75;1.10;;;-1.80;99.90;;;;;;7380287;19;20027;-66
2023/02/26 05:46:14;;;;;;;7.22;1.25;;;-1.80;99.90;;;;;;7379989;19;20015;-66
2023/02/26 05:48:40;;;;;;;3.65;1.20;;;-1.80;99.90;;;;;;7374752;19;20019;-66
2023/02/26 05:51:06;;;;;;;5.70;1.33;;;-1.80;99.90;;;;;;7376455;19;20569;-60
2023/02/26 05:53:34;;;;;;;3.92;0.85;;;-1.80;99.90;;;;;;7377652;19;20090;-59
2023/02/26 05:56:00;;;;;;;5.28;1.42;;;-1.90;99.90;;;;;;7379934;19;20021;-59
2023/02/26 05:58:32;;;;;;;3.90;1.13;;;-1.90;99.90;;;;;;7375743;19;20542;-59
2023/02/26 06:00:59;;;;;;;4.00;1.05;;;-1.80;99.90;;;;;;7378622;19;20014;-59
2023/02/26 06:03:25;;;;;;;8.77;1.20;;;-1.90;99.90;;;;;;7374111;19;20018;-59
2023/02/26 06:05:52;;;;;;;6.13;1.45;;;-1.80;99.90;;;;;;7378226;19;20034;-59
2023/02/26 06:08:18;;;;;;;5.05;1.38;;;-1.80;99.90;;;;;;7375663;19;20641;-59
2023/02/26 06:10:44;;;;;;;4.43;1.10;;;-1.80;99.90;;;;;;7377362;19;20011;-59
2023/02/26 06:13:11;;;;;;;3.20;0.98;;;-1.80;99.90;;;;;;7379287;19;20041;-65
2023/02/26 06:15:37;;;;;;;6.30;1.38;;;-1.80;99.90;;;;;;7375994;19;20015;-58
2023/02/26 06:18:03;;;;;;;3.03;1.15;;;-1.80;99.90;;;;;;7375187;19;20086;-59
2023/02/26 06:20:29;;;;;;;5.75;1.30;;;-1.80;99.90;;;;;;7374345;19;20045;-59
2023/02/26 06:22:56;;;;;;;6.35;1.23;;;-1.70;99.90;;;;;;7375377;19;20122;-58
2023/02/26 06:25:22;;;;;;;7.13;1.58;;;-1.80;99.90;;;;;;7374860;19;20018;-58
2023/02/26 06:27:48;;;;;;;6.15;1.25;;;-1.80;99.90;;;;;;7376920;19;20032;-59
2023/02/26 06:30:17;;;;;;;5.47;1.08;;;-1.80;99.90;;;;;;7375637;19;20597;-60
2023/02/26 06:32:53;;;;;;;4.90;1.35;;;-1.90;99.90;;;;;;7378540;19;20022;-66
2023/02/26 06:35:19;;;;;;;5.40;1.10;;;-1.80;99.90;;;;;;7376646;19;20023;-65
2023/02/26 06:37:46;;;;;;;4.93;1.33;;;-1.80;99.90;;;;;;7379058;19;20785;-60
2023/02/26 06:40:12;;;;;;;5.40;1.08;;;-1.80;99.90;;;;;;7376180;19;20020;-59
2023/02/26 06:42:38;;;;;;;6.63;1.48;;;-1.80;99.90;;;;;;7377659;19;20014;-60
2023/02/26 06:45:05;;;;;;;5.90;1.60;;;-1.80;99.90;;;;;;7377050;19;20030;-59
2023/02/26 06:47:31;;;;;;;6.68;1.30;;;-1.60;99.90;;;;;;7376742;19;20018;-60
2023/02/26 06:50:04;;;;;;;;;;;-1.60;99.90;;;;;;7377536;19;20021;-65
2023/02/26 06:52:30;;;;;;;8.65;1.65;;;-1.50;99.90;;;;;;7373210;19;19940;-60
2023/02/26 06:54:56;;;;;;;8.32;1.63;;;-1.50;99.90;;;;;;7370464;19;20022;-66
2023/02/26 06:57:42;;;;;;;2.80;1.00;;;-1.40;99.90;;;;;;7368580;19;20022;-65
2023/02/26 07:00:09;;;;;;;5.88;1.20;;;-1.40;99.90;;;;;;7368449;19;20014;-65
2023/02/26 07:02:36;;;;;;;8.52;1.30;;;-1.40;99.90;;;;;;7367504;19;20019;-65
2023/02/26 07:05:02;;;;;;;5.40;1.23;;;-1.30;99.90;;;;;;7366329;19;20015;-65
2023/02/26 07:07:29;;;;;;;4.10;1.85;;;-1.30;99.90;;;;;;7367782;19;20082;-62
2023/02/26 07:09:55;;;;;;;3.03;1.38;;;-1.30;99.90;;;;;;7370845;19;20018;-62
2023/02/26 07:12:22;;;;;;;5.53;1.65;;;-1.20;99.90;;;;;;7372996;19;20486;-62
2023/02/26 07:14:48;;;;;;;6.18;1.30;;;-1.20;99.90;;;;;;7374749;19;20023;-62
2023/02/26 07:17:20;;;;;;;3.03;1.17;;;-1.20;99.90;;;;;;7377463;19;20015;-62
2023/02/26 07:19:47;;;;;;;7.35;1.40;;;-1.10;99.90;;;;;;7370914;19;20477;-62
2023/02/26 07:22:15;;;;;;;8.30;1.50;;;-1.10;99.90;;;;;;7371963;19;20597;-63
2023/02/26 07:24:42;;;;;;;9.13;1.58;;;-1.00;99.90;;;;;;7374201;19;20022;-62
2023/02/26 07:27:08;;;;;;;4.68;1.00;;;-0.90;99.90;;;;;;7371658;19;20443;-62
2023/02/26 07:29:35;;;;;;;5.68;1.38;;;-0.80;99.90;;;;;;7374713;19;20132;-60
2023/02/26 07:32:03;;;;;;;7.35;1.88;;;-0.70;99.90;;;;;;7371411;19;20015;-60
2023/02/26 07:34:29;;;;;;;6.88;1.13;;;-0.60;99.90;;;;;;7368932;19;20022;-61
2023/02/26 07:36:58;;;;;;;3.28;0.90;;;-0.60;99.90;;;;;;7369928;19;20457;-61
2023/02/26 07:39:26;;;;;;;8.93;1.45;;;-0.40;99.90;;;;;;7371783;19;20022;-61
2023/02/26 07:41:52;;;;;;;3.55;1.00;;;-0.20;99.90;;;;;;7371077;19;20014;-61
2023/02/26 07:44:21;;;;;;;3.88;1.00;;;0.10;99.90;;;;;;7371208;19;20029;-62
2023/02/26 07:46:48;;;;;;;6.90;1.10;;;0.50;99.90;;;;;;7375085;19;20030;-62
2023/02/26 07:49:14;;;;;;;4.10;1.20;;;0.90;99.90;;;;;;7374264;19;20899;-63
2023/02/26 07:51:44;;;;;;;4.13;1.00;;;1.40;99.90;;;;;;7368680;19;20865;-62
2023/02/26 07:54:12;;;;;;;4.32;1.40;;;1.90;99.90;;;;;;7371511;19;20031;-64
2023/02/26 07:56:40;;;;;;;6.35;1.58;;;2.30;99.90;;;;;;7371635;19;20026;-63
2023/02/26 07:59:06;;;;;;;5.03;1.40;;;2.80;99.90;;;;;;7372929;19;20951;-62
2023/02/26 08:01:32;;;;;;;4.85;1.48;;;3.20;99.90;;;;;;7372223;19;20029;-62
2023/02/26 08:03:58;;;;;;;6.72;1.48;;;3.70;99.90;;;;;;7372230;19;20125;-63
2023/02/26 08:06:25;;;;;;;3.55;1.10;;;4.10;99.90;;;;;;7368100;19;20818;-66
2023/02/26 08:08:51;;;;;;;5.22;1.42;;;4.40;99.90;;;;;;7369846;19;20754;-63
2023/02/26 08:11:18;;;;;;;5.65;1.25;;;5.00;99.90;;;;;;7362204;19;20033;-63
2023/02/26 08:13:44;;;;;;;6.22;1.25;;;5.30;99.90;;;;;;7369462;19;20026;-67
2023/02/26 08:16:10;;;;;;;4.60;1.30;;;5.50;99.90;;;;;;7367232;19;20022;-64
2023/02/26 08:18:36;;;;;;;7.03;1.40;;;5.90;99.90;;;;;;7373069;19;21075;-64
2023/02/26 08:21:03;;;;;;;4.32;1.30;;;6.30;99.90;;;;;;7372725;19;20390;-63
2023/02/26 08:23:30;;;;;;;6.75;1.35;;;6.40;99.90;;;;;;7375130;19;20019;-65
2023/02/26 08:26:06;;;;;;;5.13;1.10;;;6.80;99.90;;;;;;7379752;19;20110;-64
2023/02/26 08:28:33;;;;;;;5.60;1.10;;;7.30;99.90;;;;;;7373690;19;20054;-65
2023/02/26 08:31:00;;;;;;;5.13;2.25;;;7.80;99.90;;;;;;7376401;19;20019;-64
2023/02/26 08:33:28;;;;;;;6.63;1.40;;;7.70;99.90;;;;;;7377446;19;20010;-64
2023/02/26 08:35:55;;;;;;;4.75;1.15;;;8.10;94.30;;;;;;7375950;19;20018;-65
2023/02/26 08:38:21;;;;;;;3.30;1.48;;;8.20;94.90;;;;;;7376789;19;20052;-65
2023/02/26 08:40:48;;;;;;;7.28;1.70;;;8.60;91.80;;;;;;7376880;19;20022;-65
2023/02/26 08:43:15;;;;;;;5.50;1.52;;;9.00;92.90;;;;;;7379845;19;20022;-65
2023/02/26 08:45:41;;;;;;;5.75;1.13;;;9.00;70.90;;;;;;7378690;19;20018;-65
2023/02/26 08:48:07;;;;;;;5.38;1.52;;;9.50;74.40;;;;;;7378584;19;20017;-65
2023/02/26 08:50:34;;;;;;;4.63;1.40;;;9.80;68.40;;;;;;7375600;19;20070;-65
2023/02/26 08:53:00;;;;;;;5.43;1.38;;;10.00;68.20;;;;;;7377707;19;20018;-66
2023/02/26 08:55:26;;;;;;;3.55;1.13;;;10.00;64.10;;;;;;7377405;19;20023;-66
2023/02/26 08:57:53;;;;;;;4.82;1.30;;;10.40;64.30;;;;;;7378982;19;20014;-66
2023/02/26 09:00:19;;;;;;;4.47;1.27;;;10.30;61.10;;;;;;7377651;19;21458;-66
2023/02/26 09:02:46;;;;;;;4.85;1.58;;;10.40;59.80;;;;;;7381073;19;20023;-66
2023/02/26 09:05:13;;;;;;;5.43;2.38;;;10.60;60.60;;;;;;7379321;19;20022;-65
2023/02/26 09:07:41;;;;;;;4.63;1.27;;;11.30;59.60;;;;;;7377172;19;20010;-65
2023/02/26 09:10:08;;;;;;;3.30;1.40;;;11.50;59.10;;;;;;7381065;19;20021;-65
2023/02/26 09:12:37;;;;;;;4.28;1.23;;;11.80;58.50;;;;;;7377358;19;20011;-67
2023/02/26 09:15:04;;;;;;;6.22;1.60;;;11.90;57.00;;;;;;7377327;19;20352;-66
2023/02/26 09:17:31;;;;;;;4.35;1.10;;;12.20;56.80;;;;;;7378999;19;20552;-66
2023/02/26 09:19:57;;;;;;;9.80;4.45;;;12.30;55.60;;;;;;7377425;19;20026;-66
2023/02/26 09:22:24;;;;;;;4.30;1.00;;;11.90;52.40;;;;;;7379715;19;20102;-66
2023/02/26 09:24:50;;;;;;;8.73;5.88;;;12.20;54.00;;;;;;7377488;19;20090;-66
2023/02/26 09:27:17;;;;;;;4.22;1.10;;;12.50;53.60;;;;;;7377898;19;20082;-66
2023/02/26 09:29:43;;;;;;;5.13;1.50;;;12.60;53.20;;;;;;7377158;19;20654;-67
2023/02/26 09:32:09;;;;;;;7.07;2.25;;;12.00;51.80;;;;;;7373980;19;20046;-66
2023/02/26 09:34:37;;;;;;;7.60;4.53;;;12.30;51.50;;;;;;7376620;19;20010;-66
2023/02/26 09:37:06;;;;;;;6.20;2.53;;;13.00;51.10;;;;;;7377781;19;20035;-65
2023/02/26 09:39:33;;;;;;;9.68;6.10;;;12.80;51.20;;;;;;7375956;19;20110;-65
2023/02/26 09:42:12;;;;;;;9.68;6.00;;;12.10;51.10;;;;;;7375144;19;20021;-66
2023/02/26 09:44:39;;;;;;;9.55;6.68;;;11.50;49.20;;;;;;7376730;19;20021;-65
2023/02/26 09:47:14;;;;;;;2.03;0.60;;;11.70;51.60;;;;;;7377570;19;20014;-65
2023/02/26 09:49:52;;;;;;;2.10;1.13;;;12.00;50.60;;;;;;7373874;19;21462;-65
2023/02/26 09:52:21;;;;;;;5.10;2.80;;;11.90;49.60;;;;;;7375005;19;20385;-65
2023/02/26 09:54:51;;;;;;;7.85;2.72;;;11.40;49.60;;;;;;7375571;19;20109;-65
2023/02/26 09:57:31;;;;;;;3.78;1.80;;;11.70;50.70;;;;;;7376592;19;20022;-65
2023/02/26 09:59:59;;;;;;;7.57;5.43;;;11.40;50.50;;;;;;7376855;19;20433;-66
2023/02/26 10:02:52;;;;;;;6.85;3.58;;;12.00;51.90;;;;;;7374489;19;20031;-66
2023/02/26 10:05:29;;;;;;;4.78;2.80;;;12.00;49.80;;;;;;7377788;19;20527;-67
2023/02/26 10:08:04;;;;;;;7.13;2.42;;;12.10;49.40;;;;;;7374254;19;20767;-66
2023/02/26 10:10:55;;;;;;;3.97;2.10;;;11.90;50.30;;;;;;7377462;19;20147;-67
2023/02/26 10:13:46;;;;;;;3.45;1.58;;;12.20;50.20;;;;;;7374192;19;20010;-65
2023/02/26 10:16:18;;;;;;;6.13;2.85;;;11.70;48.80;;;;;;7376192;19;20033;-65
2023/02/26 10:18:51;;;;;;;5.18;2.17;;;12.40;49.80;;;;;;7376660;19;20015;-65
2023/02/26 10:21:31;;;;;;;5.60;2.35;;;12.20;48.60;;;;;;7376135;19;20501;-65
2023/02/26 10:24:02;;;;;;;3.40;1.30;;;12.40;49.20;;;;;;7376272;19;20026;-66
2023/02/26 10:26:47;;;;;;;3.30;1.23;;;13.20;49.80;;;;;;7377234;19;20532;-65
2023/02/26 10:29:47;;;;;;;3.45;1.35;;;13.30;47.80;;;;;;7376835;19;20010;-66
2023/02/26 10:32:22;;;;;;;4.85;2.33;;;12.90;47.50;;;;;;7377981;19;20022;-66
2023/02/26 10:35:01;;;;;;;4.35;0.80;;;12.40;47.10;;;;;;7372423;19;20022;-65
2023/02/26 10:37:51;;;;;;;5.45;3.05;;;12.00;48.50;;;;;;7377506;19;20017;-63
2023/02/26 10:40:31;;;;;;;2.97;1.92;;;13.30;48.90;;;;;;7378351;19;20019;-65
2023/02/26 10:43:20;;;;;;;3.10;0.88;;;12.90;48.00;;;;;;7371102;19;20025;-65
2023/02/26 10:46:02;;;;;;;1.65;0.70;;;13.10;46.40;;;;;;7375011;19;20011;-65
2023/02/26 10:48:39;;;;;;;7.13;4.20;;;13.10;47.50;;;;;;7374959;19;20010;-65
2023/02/26 10:51:12;;;;;;;4.13;2.17;;;13.30;47.20;;;;;;7372628;19;20018;-65
2023/02/26 10:53:44;;;;;;;6.43;3.47;;;13.60;47.10;;;;;;7374999;19;20026;-65
2023/02/26 10:56:22;;;;;;;7.35;3.90;;;13.50;46.60;;;;;;7377009;19;20014;-65
2023/02/26 10:58:50;;;;;;;4.47;1.50;;;13.30;46.30;;;;;;7373796;19;20018;-65
2023/02/26 11:01:20;;;;;;;5.60;2.60;;;12.20;46.40;;;;;;7374753;19;20029;-64
2023/02/26 11:03:57;;;;;;;7.88;5.13;;;11.10;48.10;;;;;;7373433;19;20022;-64
2023/02/26 11:06:32;;;;;;;8.13;5.03;;;11.00;50.10;;;;;;7369884;19;20023;-64
2023/02/26 11:09:01;;;;;;;18.35;14.27;;;11.30;50.80;;;;;;7368037;19;20794;-64
2023/02/26 11:11:52;;;;;;;5.32;2.45;;;11.40;50.30;;;;;;7369142;19;20699;-64
2023/02/26 11:14:20;;;;;;;10.05;5.78;;;11.40;50.00;;;;;;7368046;19;20090;-66
2023/02/26 11:16:56;;;;;;;7.63;4.25;;;12.10;49.80;;;;;;7369101;19;20033;-66
2023/02/26 11:19:28;;;;;;;6.03;2.35;;;12.00;48.40;;;;;;7366442;19;20014;-66
2023/02/26 11:21:55;;;;;;;6.65;3.05;;;12.00;48.20;;;;;;7373130;19;20026;-64
2023/02/26 11:24:35;;;;;;;10.05;2.65;;;11.60;48.00;;;;;;7369922;19;20033;-66
2023/02/26 11:27:05;;;;;;;6.40;3.15;;;10.80;49.60;;;;;;7370054;19;20089;-66
2023/02/26 11:29:37;;;;;;;5.93;3.58;;;10.60;50.60;;;;;;7371420;19;20027;-65
2023/02/26 11:32:04;;;;;;;5.30;2.40;;;10.30;51.20;;;;;;7370241;19;20037;-64
2023/02/26 11:34:31;;;;;;;4.68;1.40;;;10.80;51.00;;;;;;7369247;19;20026;-65
2023/02/26 11:37:00;;;;;;;9.20;3.00;;;10.60;50.30;;;;;;7369519;19;20015;-65
2023/02/26 11:39:32;;;;;;;7.75;4.65;;;10.90;51.20;;;;;;7372370;19;20773;-65
2023/02/26 11:42:01;;;;;;;5.32;2.70;;;10.50;51.50;;;;;;7369637;19;20014;-65
2023/02/26 11:44:35;;;;;;;6.47;3.65;;;10.80;52.10;;;;;;7367879;19;20187;-65
2023/02/26 11:47:06;;;;;;;15.73;10.32;;;10.40;51.50;;;;;;7368246;19;20039;-65
2023/02/26 11:49:33;;;;;;;6.37;3.13;;;9.40;52.60;;;;;;7371983;19;20025;-65
2023/02/26 11:52:28;;;;;;;7.68;5.25;;;9.10;53.40;;;;;;7349897;19;20025;-65
2023/02/26 11:55:03;;;;;;;11.13;6.57;;;10.00;53.40;;;;;;7367468;19;20015;-65
2023/02/26 11:57:31;;;;;;;6.65;3.17;;;10.30;53.30;;;;;;7366424;19;20808;-65
2023/02/26 12:00:00;;;;;;;3.75;1.55;;;10.30;52.10;;;;;;7366290;19;20031;-65
2023/02/26 12:02:36;;;;;;;2.00;0.75;;;9.90;52.40;;;;;;7366910;19;20023;-65
2023/02/26 12:05:05;;;;;;;7.80;4.75;;;10.60;53.20;;;;;;7367326;19;20033;-65
2023/02/26 12:07:32;;;;;;;2.50;0.95;;;11.10;51.70;;;;;;7366474;19;20026;-67
2023/02/26 12:09:58;;;;;;;3.08;1.00;;;10.90;52.40;;;;;;7366607;19;20010;-66
2023/02/26 12:12:27;;;;;;;8.10;4.03;;;12.10;51.70;;;;;;7364927;19;20859;-66
2023/02/26 12:15:15;;;;;;;2.85;1.25;;;13.20;49.80;;;;;;7364468;19;21566;-66
2023/02/26 12:18:00;;;;;;;4.88;1.00;;;13.70;47.70;;;;;;7363305;19;20042;-67
2023/02/26 12:21:14;;;;;;;4.65;1.63;;;14.30;46.60;;;;;;7363614;19;20015;-65
2023/02/26 12:23:55;;;;;;;2.45;0.77;;;14.30;45.50;;;;;;7360073;19;20482;-65
2023/02/26 12:26:32;;;;;;;2.72;1.05;;;14.80;45.80;;;;;;7364393;19;20038;-65
2023/02/26 12:29:20;;;;;;;3.67;1.83;;;15.20;44.90;;;;;;7364444;19;20019;-63
2023/02/26 12:32:14;;;;;;;6.75;1.63;;;15.40;45.20;;;;;;7366830;19;20030;-64
2023/02/26 12:34:54;;;;;;;5.10;2.88;;;16.00;44.30;;;;;;7365180;19;20505;-65
2023/02/26 12:37:28;;;;;;;2.15;1.10;;;16.30;43.80;;;;;;7362914;19;20051;-64
2023/02/26 12:40:05;;;;;;;7.28;3.28;;;16.90;42.90;;;;;;7366143;19;20022;-64
2023/02/26 12:42:59;;;;;;;9.15;5.53;;;15.90;42.70;;;;;;7362103;19;20102;-63
2023/02/26 12:45:54;;;;;;;6.28;3.03;;;14.90;43.40;;;;;;7362184;19;20030;-64
2023/02/26 12:48:40;;;;;;;3.90;1.63;;;14.30;44.00;;;;;;7362024;19;20022;-64
2023/02/26 12:51:29;;;;;;;4.85;2.53;;;14.10;44.90;;;;;;7365964;19;20018;-64
2023/02/26 12:53:56;;;;;;;5.65;2.30;;;12.60;45.50;;;;;;7358278;19;20758;-64
2023/02/26 12:56:46;;;;;;;10.32;7.03;;;11.40;47.00;;;;;;7362482;19;20026;-64
2023/02/26 12:59:43;;;;;;;4.03;1.90;;;11.30;49.20;;;;;;7359485;19;21289;-64
2023/02/26 13:02:41;;;;;;;4.07;2.22;;;12.10;49.00;;;;;;7363704;19;20921;-63
2023/02/26 13:05:40;;;;;;;46.15;36.22;;;13.10;46.80;;;;;;7369142;19;20022;-51
2023/02/26 13:08:41;;;;;;;35.05;27.60;;;14.40;46.50;;;;;;7367193;19;20115;-55
2023/02/26 13:11:28;;;;;;;16.75;12.45;;;14.80;44.70;;;;;;7367583;19;20027;-56
2023/02/26 13:14:18;;;;;;;23.63;17.52;;;15.30;44.20;;;;;;7365856;19;20759;-52
2023/02/26 13:16:49;;;;;;;4.57;1.88;;;15.80;44.30;;;;;;7373557;19;20045;-53
2023/02/26 13:19:57;;;;;;;8.10;2.42;;;16.30;44.30;;;;;;7365976;19;20887;-52